createdAt,value
2022-09-10T00:01:16.753Z,84.10
2022-09-10T00:05:30.796Z,84.30
2022-09-10T00:09:44.458Z,83.50
2022-09-10T00:14:00.029Z,84.20
2022-09-10T00:18:15.538Z,85.20
2022-09-10T00:22:29.227Z,85.40
2022-09-10T00:26:43.174Z,85.40
2022-09-10T00:30:58.353Z,86.00
2022-09-10T00:35:12.174Z,86.70
2022-09-10T00:39:26.063Z,87.40
2022-09-10T00:43:52.403Z,87.70
2022-09-10T00:48:15.344Z,88.30
2022-09-10T00:52:29.420Z,88.60
2022-09-10T00:56:43.755Z,88.50
2022-09-10T01:01:01.273Z,89.10
2022-09-10T01:05:17.378Z,89.30
2022-09-10T01:09:31.156Z,89.30
2022-09-10T01:14:05.336Z,89.40
2022-09-10T01:18:32.131Z,89.20
2022-09-10T01:23:06.343Z,88.70
2022-09-10T01:27:43.143Z,88.50
2022-09-10T01:32:06.873Z,88.10
2022-09-10T01:36:26.663Z,87.80
2022-09-10T01:40:40.984Z,88.10
2022-09-10T01:45:37.633Z,87.10
2022-09-10T01:50:05.009Z,87.10
2022-09-10T01:54:28.755Z,87.30
2022-09-10T01:58:46.430Z,87.30
2022-09-10T02:03:08.793Z,86.90
2022-09-10T02:07:26.487Z,86.70
2022-09-10T02:11:50.194Z,86.40
2022-09-10T02:16:27.416Z,86.30
2022-09-10T02:20:43.069Z,86.70
2022-09-10T02:24:57.194Z,86.90
2022-09-10T02:29:13.746Z,87.10
2022-09-10T02:33:27.650Z,87.50
2022-09-10T02:37:44.551Z,88.40
2022-09-10T02:41:59.727Z,87.70
2022-09-10T02:46:13.883Z,87.70
2022-09-10T02:50:28.938Z,88.40
2022-09-10T02:54:44.800Z,88.20
2022-09-10T02:58:58.495Z,89.00
2022-09-10T03:03:14.887Z,88.40
2022-09-10T03:07:29.637Z,88.70
2022-09-10T03:11:45.355Z,88.90
2022-09-10T03:15:59.879Z,88.90
2022-09-10T03:20:14.214Z,89.30
2022-09-10T03:24:28.497Z,89.40
2022-09-10T03:28:44.676Z,90.00
2022-09-10T03:33:01.102Z,89.80
2022-09-10T03:37:14.882Z,90.10
2022-09-10T03:41:29.302Z,90.20
2022-09-10T03:45:49.133Z,90.40
2022-09-10T03:50:03.803Z,90.40
2022-09-10T03:54:17.759Z,90.50
2022-09-10T03:58:32.446Z,90.60
2022-09-10T04:02:48.287Z,90.80
2022-09-10T04:07:02.123Z,90.70
2022-09-10T04:11:16.168Z,90.70
2022-09-10T04:15:30.718Z,90.70
2022-09-10T04:19:46.265Z,90.70
2022-09-10T04:24:00.810Z,90.70
2022-09-10T04:28:16.144Z,90.60
2022-09-10T04:32:32.824Z,90.50
2022-09-10T04:36:48.059Z,90.20
2022-09-10T04:41:02.397Z,89.90
2022-09-10T04:45:16.266Z,89.40
2022-09-10T04:49:29.995Z,89.30
2022-09-10T04:53:46.439Z,90.00
2022-09-10T04:58:00.310Z,89.70
2022-09-10T05:02:14.720Z,89.90
2022-09-10T05:06:28.560Z,90.90
2022-09-10T05:10:45.295Z,90.40
2022-09-10T05:14:59.710Z,88.70
2022-09-10T05:19:17.903Z,87.60
2022-09-10T05:23:41.722Z,87.60
2022-09-10T05:27:56.818Z,89.30
2022-09-10T05:32:10.614Z,87.00
2022-09-10T05:36:24.673Z,84.90
2022-09-10T05:40:38.813Z,83.90
2022-09-10T05:44:53.986Z,84.00
2022-09-10T05:49:08.620Z,84.50
2022-09-10T05:53:23.483Z,84.60
2022-09-10T05:57:37.287Z,84.50
2022-09-10T06:01:52.484Z,82.80
2022-09-10T06:06:09.861Z,81.80
2022-09-10T06:10:27.593Z,81.10
2022-09-10T06:14:41.285Z,80.20
2022-09-10T06:18:57.303Z,79.30
2022-09-10T06:23:13.143Z,76.40
2022-09-10T06:27:26.988Z,73.50
2022-09-10T06:31:40.751Z,71.80
2022-09-10T06:35:58.123Z,70.80
2022-09-10T06:40:12.546Z,70.60
2022-09-10T06:44:29.377Z,70.90
2022-09-10T06:48:51.787Z,71.00
2022-09-10T06:53:08.341Z,74.90
2022-09-10T06:57:22.105Z,71.20
2022-09-10T07:01:37.909Z,64.60
2022-09-10T07:05:53.394Z,58.50
2022-09-10T07:10:11.026Z,54.20
2022-09-10T07:14:27.005Z,52.90
2022-09-10T07:18:42.470Z,52.70
2022-09-10T07:22:57.217Z,50.20
2022-09-10T07:27:14.285Z,47.60
2022-09-10T07:31:31.550Z,46.40
2022-09-10T07:35:48.517Z,46.60
2022-09-10T07:40:07.629Z,47.30
2022-09-10T07:44:23.001Z,49.00
2022-09-10T07:48:37.627Z,50.40
2022-09-10T07:52:52.786Z,49.20
2022-09-10T07:57:09.067Z,45.70
2022-09-10T08:01:24.642Z,43.30
2022-09-10T08:05:39.564Z,41.60
2022-09-10T08:09:54.074Z,40.00
2022-09-10T08:14:07.843Z,41.40
2022-09-10T08:18:23.077Z,40.60
2022-09-10T08:22:38.094Z,39.90
2022-09-10T08:26:52.866Z,39.50
2022-09-10T08:31:09.038Z,39.20
2022-09-10T08:35:31.082Z,40.70
2022-09-10T08:39:44.833Z,41.30
2022-09-10T08:44:04.402Z,41.90
2022-09-10T08:48:24.259Z,42.80
2022-09-10T08:52:49.225Z,43.70
2022-09-10T08:57:23.247Z,45.00
2022-09-10T09:01:42.734Z,46.40
2022-09-10T09:06:00.390Z,47.40
2022-09-10T09:10:35.518Z,45.00
2022-09-10T09:14:58.048Z,44.70
2022-09-10T09:19:29.343Z,42.60
2022-09-10T09:24:11.558Z,40.20
2022-09-10T09:28:34.649Z,37.10
2022-09-10T09:32:49.022Z,36.60
2022-09-10T09:37:06.054Z,37.50
2022-09-10T09:41:26.245Z,36.50
2022-09-10T09:45:44.073Z,35.20
2022-09-10T09:50:00.564Z,34.80
2022-09-10T09:54:56.509Z,35.00
2022-09-10T09:58:53.618Z,34.80
2022-09-10T10:03:19.295Z,34.00
2022-09-10T10:07:36.207Z,33.60
2022-09-10T10:11:53.772Z,32.60
2022-09-10T10:16:17.482Z,32.10
2022-09-10T10:20:41.450Z,31.90
2022-09-10T10:24:55.683Z,31.90
2022-09-10T10:29:19.589Z,31.70
2022-09-10T10:33:35.457Z,32.80
2022-09-10T10:38:13.355Z,33.70
2022-09-10T10:42:32.836Z,33.70
2022-09-10T10:46:55.885Z,33.00
2022-09-10T10:51:18.230Z,32.60
2022-09-10T10:55:41.015Z,32.40
2022-09-10T11:00:01.270Z,31.80
2022-09-10T11:04:26.050Z,32.20
2022-09-10T11:08:46.019Z,33.00
2022-09-10T11:13:08.966Z,34.50
2022-09-10T11:17:29.727Z,36.00
2022-09-10T11:21:49.330Z,36.30
2022-09-10T11:26:07.453Z,37.10
2022-09-10T11:30:22.533Z,38.30
2022-09-10T11:34:47.544Z,38.20
2022-09-10T11:39:10.432Z,36.10
2022-09-10T11:43:34.031Z,34.80
2022-09-10T11:48:32.205Z,34.70
2022-09-10T11:53:28.017Z,36.20
2022-09-10T11:58:27.235Z,37.60
2022-09-10T12:04:00.069Z,39.30
2022-09-10T12:09:07.098Z,40.90
2022-09-10T12:14:07.551Z,42.50
2022-09-10T12:19:05.070Z,44.00
2022-09-10T12:24:02.028Z,45.40
2022-09-10T12:29:00.703Z,46.50
2022-09-10T12:34:17.113Z,46.80
2022-09-10T12:39:26.459Z,47.20
2022-09-10T13:58:16.873Z,53.90
2022-09-10T14:02:52.789Z,53.40
2022-09-10T14:07:13.175Z,52.50
2022-09-10T14:17:06.486Z,50.80
2022-09-10T14:21:26.901Z,50.20
2022-09-10T14:25:43.053Z,49.80
2022-09-10T14:29:58.265Z,49.60
2022-09-10T14:34:32.123Z,49.10
2022-09-10T14:38:54.344Z,48.80
2022-09-10T14:43:17.615Z,48.90
2022-09-10T14:47:35.840Z,49.40
2022-09-10T14:51:50.855Z,50.40
2022-09-10T14:56:05.534Z,51.80
2022-09-10T15:00:19.335Z,53.20
2022-09-10T15:04:33.467Z,54.10
2022-09-10T15:08:49.801Z,54.80
2022-09-10T15:13:04.971Z,55.10
2022-09-10T15:17:19.852Z,55.40
2022-09-10T15:21:34.880Z,54.70
2022-09-10T15:25:52.556Z,54.90
2022-09-10T15:30:08.085Z,55.00
2022-09-10T15:34:22.290Z,54.80
2022-09-10T15:38:36.926Z,55.10
2022-09-10T15:42:52.774Z,55.30
2022-09-10T15:47:07.499Z,55.70
2022-09-10T15:51:23.356Z,56.10
2022-09-10T15:55:39.229Z,56.60
2022-09-10T15:59:54.747Z,57.10
2022-09-10T16:04:09.830Z,57.60
2022-09-10T16:08:23.705Z,58.00
2022-09-10T16:12:37.944Z,58.30
2022-09-10T16:16:53.975Z,58.70
2022-09-10T16:21:13.449Z,59.00
2022-09-10T16:25:27.613Z,59.20
2022-09-10T16:29:43.701Z,59.40
2022-09-10T19:13:43.716Z,70.00
2022-09-10T19:17:57.337Z,70.50
2022-09-10T19:22:11.451Z,70.90
2022-09-10T19:26:26.120Z,71.00
2022-09-10T19:30:41.553Z,71.30
2022-09-10T19:34:55.895Z,71.70
2022-09-10T19:39:17.609Z,72.00
2022-09-10T19:43:31.312Z,72.40
2022-09-10T19:47:46.647Z,72.60
2022-09-10T19:52:00.413Z,72.80
2022-09-10T19:56:20.508Z,72.90
2022-09-10T20:00:46.307Z,73.10
2022-09-10T20:05:02.442Z,73.30
2022-09-10T20:09:16.237Z,73.50
2022-09-10T20:13:29.877Z,73.60
2022-09-10T20:17:43.515Z,73.90
2022-09-10T20:21:58.722Z,74.20
2022-09-10T20:26:14.245Z,74.70
2022-09-10T20:30:28.082Z,75.00
2022-09-10T20:34:44.485Z,75.40
2022-09-10T20:39:00.393Z,75.80
2022-09-10T20:43:14.105Z,76.00
2022-09-10T20:47:31.280Z,76.30
2022-09-10T20:51:45.649Z,76.80
2022-09-10T20:56:08.832Z,77.20
2022-09-10T21:00:22.978Z,78.60
2022-09-10T21:04:36.654Z,78.20
2022-09-10T21:08:50.673Z,78.90
2022-09-10T21:13:09.070Z,79.80
2022-09-10T21:17:23.933Z,80.30
2022-09-10T21:21:39.753Z,81.00
2022-09-10T21:25:53.598Z,82.40
2022-09-10T21:30:09.876Z,82.90
2022-09-10T21:34:23.852Z,83.30
2022-09-10T21:38:38.081Z,83.70
2022-09-10T21:42:51.752Z,84.00
2022-09-10T21:47:07.101Z,84.30
2022-09-10T21:51:22.283Z,84.70
2022-09-10T21:55:36.074Z,85.20
2022-09-10T21:59:49.683Z,85.80
2022-09-10T22:04:04.875Z,86.30
2022-09-10T22:08:19.280Z,86.70
2022-09-10T22:12:32.921Z,87.00
2022-09-10T22:16:47.064Z,87.40
2022-09-10T22:21:02.601Z,87.80
2022-09-10T22:25:16.546Z,87.90
2022-09-10T22:29:30.331Z,88.10
2022-09-10T22:33:45.892Z,88.50
2022-09-10T22:38:00.951Z,88.90
2022-09-10T22:42:15.099Z,89.40
2022-09-10T22:46:29.096Z,89.60
2022-09-10T22:50:42.720Z,89.80
2022-09-10T22:54:57.764Z,90.10
2022-09-10T22:59:14.572Z,90.20
2022-09-10T23:03:28.294Z,90.40
2022-09-10T23:07:41.964Z,90.60
2022-09-10T23:11:56.948Z,90.70
2022-09-10T23:16:12.340Z,90.80
2022-09-10T23:20:26.124Z,91.00
2022-09-10T23:24:39.842Z,91.00
2022-09-10T23:28:55.579Z,91.00
2022-09-10T23:33:09.495Z,91.00
2022-09-10T23:37:23.169Z,91.00
2022-09-10T23:41:37.142Z,91.00
2022-09-10T23:45:53.129Z,91.00
2022-09-10T23:50:07.900Z,90.90
2022-09-10T23:54:21.573Z,90.80
2022-09-10T23:58:35.451Z,90.80
